sensor_id;sensor_type;location;lat;lon;timestamp;temperature;humidity
22923;DHT22;11627;51.322;22.816;2022-12-16T00:01:21;-2.30;15.80
22923;DHT22;11627;51.322;22.816;2022-12-16T00:03:52;-2.40;14.60
22923;DHT22;11627;51.322;22.816;2022-12-16T00:06:19;-2.30;22.70
22923;DHT22;11627;51.322;22.816;2022-12-16T00:08:46;-2.50;20.00
22923;DHT22;11627;51.322;22.816;2022-12-16T00:11:13;-2.50;19.40
22923;DHT22;11627;51.322;22.816;2022-12-16T00:13:40;-2.50;19.60
22923;DHT22;11627;51.322;22.816;2022-12-16T00:16:14;-2.60;22.70
22923;DHT22;11627;51.322;22.816;2022-12-16T00:18:41;-2.50;16.80
22923;DHT22;11627;51.322;22.816;2022-12-16T00:21:08;-2.50;13.40
22923;DHT22;11627;51.322;22.816;2022-12-16T00:23:33;-2.50;16.00
22923;DHT22;11627;51.322;22.816;2022-12-16T00:25:59;-2.60;17.00
22923;DHT22;11627;51.322;22.816;2022-12-16T00:28:26;-2.40;16.70
22923;DHT22;11627;51.322;22.816;2022-12-16T00:30:54;-2.30;18.50
22923;DHT22;11627;51.322;22.816;2022-12-16T00:33:21;-2.50;10.70
22923;DHT22;11627;51.322;22.816;2022-12-16T00:35:48;-2.40;19.00
22923;DHT22;11627;51.322;22.816;2022-12-16T00:38:14;-2.30;14.70
22923;DHT22;11627;51.322;22.816;2022-12-16T00:40:40;-2.50;18.30
22923;DHT22;11627;51.322;22.816;2022-12-16T00:45:32;-1.90;21.70
22923;DHT22;11627;51.322;22.816;2022-12-16T00:50:24;-2.40;19.30
22923;DHT22;11627;51.322;22.816;2022-12-16T00:52:51;-2.50;21.20
22923;DHT22;11627;51.322;22.816;2022-12-16T00:55:17;-2.20;20.20
22923;DHT22;11627;51.322;22.816;2022-12-16T00:57:43;-2.40;13.10
22923;DHT22;11627;51.322;22.816;2022-12-16T01:00:11;-2.30;20.40
22923;DHT22;11627;51.322;22.816;2022-12-16T01:02:45;-2.30;13.90
22923;DHT22;11627;51.322;22.816;2022-12-16T01:05:15;-2.40;20.20
22923;DHT22;11627;51.322;22.816;2022-12-16T01:07:42;-2.40;21.30
22923;DHT22;11627;51.322;22.816;2022-12-16T01:10:08;-2.40;21.30
22923;DHT22;11627;51.322;22.816;2022-12-16T01:12:35;-2.40;23.20
22923;DHT22;11627;51.322;22.816;2022-12-16T01:15:02;-2.50;23.80
22923;DHT22;11627;51.322;22.816;2022-12-16T01:22:21;-2.30;25.10
22923;DHT22;11627;51.322;22.816;2022-12-16T01:24:47;-2.40;24.70
22923;DHT22;11627;51.322;22.816;2022-12-16T01:27:15;-2.40;24.30
22923;DHT22;11627;51.322;22.816;2022-12-16T01:29:41;-2.50;24.90
22923;DHT22;11627;51.322;22.816;2022-12-16T01:32:11;-2.40;16.50
22923;DHT22;11627;51.322;22.816;2022-12-16T01:34:39;-2.40;25.60
22923;DHT22;11627;51.322;22.816;2022-12-16T01:39:33;-2.30;26.80
22923;DHT22;11627;51.322;22.816;2022-12-16T01:41:58;-2.60;28.30
22923;DHT22;11627;51.322;22.816;2022-12-16T01:44:25;-2.50;23.80
22923;DHT22;11627;51.322;22.816;2022-12-16T01:47:01;-2.30;19.60
22923;DHT22;11627;51.322;22.816;2022-12-16T01:50:00;-2.40;26.00
22923;DHT22;11627;51.322;22.816;2022-12-16T01:52:34;-2.20;24.10
22923;DHT22;11627;51.322;22.816;2022-12-16T01:55:27;-2.30;25.40
22923;DHT22;11627;51.322;22.816;2022-12-16T01:58:08;-2.20;25.90
22923;DHT22;11627;51.322;22.816;2022-12-16T02:00:36;-2.30;22.00
22923;DHT22;11627;51.322;22.816;2022-12-16T02:03:05;-2.20;26.70
22923;DHT22;11627;51.322;22.816;2022-12-16T02:05:33;-2.20;17.20
22923;DHT22;11627;51.322;22.816;2022-12-16T02:08:06;-2.30;25.70
22923;DHT22;11627;51.322;22.816;2022-12-16T02:21:46;-2.20;29.50
22923;DHT22;11627;51.322;22.816;2022-12-16T02:24:19;-2.40;28.90
22923;DHT22;11627;51.322;22.816;2022-12-16T02:32:57;-2.20;30.40
22923;DHT22;11627;51.322;22.816;2022-12-16T02:35:38;-2.40;32.20
22923;DHT22;11627;51.322;22.816;2022-12-16T02:39:13;-2.30;34.90
22923;DHT22;11627;51.322;22.816;2022-12-16T02:41:16;-2.30;35.50
22923;DHT22;11627;51.322;22.816;2022-12-16T02:44:02;-2.40;29.80
22923;DHT22;11627;51.322;22.816;2022-12-16T02:46:30;-2.50;35.10
22923;DHT22;11627;51.322;22.816;2022-12-16T02:51:56;-2.40;34.70
22923;DHT22;11627;51.322;22.816;2022-12-16T02:54:22;-2.30;35.50
22923;DHT22;11627;51.322;22.816;2022-12-16T03:02:33;-2.40;26.30
22923;DHT22;11627;51.322;22.816;2022-12-16T03:05:08;-2.30;37.80
22923;DHT22;11627;51.322;22.816;2022-12-16T03:07:37;-2.40;39.10
22923;DHT22;11627;51.322;22.816;2022-12-16T03:10:09;-2.40;40.30
22923;DHT22;11627;51.322;22.816;2022-12-16T03:12:40;-2.60;41.70
22923;DHT22;11627;51.322;22.816;2022-12-16T03:15:07;-2.30;41.10
22923;DHT22;11627;51.322;22.816;2022-12-16T03:17:34;-2.50;35.50
22923;DHT22;11627;51.322;22.816;2022-12-16T03:20:11;-2.40;46.60
22923;DHT22;11627;51.322;22.816;2022-12-16T03:22:40;-2.50;37.70
22923;DHT22;11627;51.322;22.816;2022-12-16T03:25:08;-2.50;37.30
22923;DHT22;11627;51.322;22.816;2022-12-16T03:27:45;-2.50;46.10
22923;DHT22;11627;51.322;22.816;2022-12-16T03:30:45;-2.40;49.30
22923;DHT22;11627;51.322;22.816;2022-12-16T03:33:22;-2.40;51.20
22923;DHT22;11627;51.322;22.816;2022-12-16T03:35:54;-2.20;50.70
22923;DHT22;11627;51.322;22.816;2022-12-16T03:38:23;-2.50;49.40
22923;DHT22;11627;51.322;22.816;2022-12-16T03:40:50;-2.50;53.30
22923;DHT22;11627;51.322;22.816;2022-12-16T03:43:18;-2.50;47.80
22923;DHT22;11627;51.322;22.816;2022-12-16T03:45:44;-2.40;55.10
22923;DHT22;11627;51.322;22.816;2022-12-16T03:48:12;-2.40;55.10
22923;DHT22;11627;51.322;22.816;2022-12-16T03:50:39;-2.30;55.30
22923;DHT22;11627;51.322;22.816;2022-12-16T03:53:05;-2.50;56.30
22923;DHT22;11627;51.322;22.816;2022-12-16T03:55:31;-2.60;57.80
22923;DHT22;11627;51.322;22.816;2022-12-16T03:57:57;-2.50;58.80
22923;DHT22;11627;51.322;22.816;2022-12-16T04:00:24;-2.40;54.80
22923;DHT22;11627;51.322;22.816;2022-12-16T04:02:52;-2.60;60.80
22923;DHT22;11627;51.322;22.816;2022-12-16T04:05:18;-2.40;61.30
22923;DHT22;11627;51.322;22.816;2022-12-16T04:10:11;-2.60;52.30
22923;DHT22;11627;51.322;22.816;2022-12-16T04:12:36;-2.70;63.10
22923;DHT22;11627;51.322;22.816;2022-12-16T04:15:20;-2.50;58.90
22923;DHT22;11627;51.322;22.816;2022-12-16T04:18:13;-2.60;62.30
22923;DHT22;11627;51.322;22.816;2022-12-16T04:20:58;-2.50;63.40
22923;DHT22;11627;51.322;22.816;2022-12-16T04:23:50;-2.50;65.00
22923;DHT22;11627;51.322;22.816;2022-12-16T04:26:35;-2.40;65.30
22923;DHT22;11627;51.322;22.816;2022-12-16T04:29:21;-2.40;66.60
22923;DHT22;11627;51.322;22.816;2022-12-16T04:34:12;-2.50;66.70
22923;DHT22;11627;51.322;22.816;2022-12-16T04:36:57;-2.50;67.60
22923;DHT22;11627;51.322;22.816;2022-12-16T04:39:44;-2.60;68.80
22923;DHT22;11627;51.322;22.816;2022-12-16T04:42:30;-2.60;69.20
22923;DHT22;11627;51.322;22.816;2022-12-16T04:45:17;-2.50;69.60
22923;DHT22;11627;51.322;22.816;2022-12-16T04:48:02;-2.90;70.50
22923;DHT22;11627;51.322;22.816;2022-12-16T04:50:46;-2.60;64.10
22923;DHT22;11627;51.322;22.816;2022-12-16T04:53:31;-2.40;71.00
22923;DHT22;11627;51.322;22.816;2022-12-16T04:56:16;-2.50;71.10
22923;DHT22;11627;51.322;22.816;2022-12-16T04:59:00;-2.50;70.30
22923;DHT22;11627;51.322;22.816;2022-12-16T05:07:13;-2.40;72.60
22923;DHT22;11627;51.322;22.816;2022-12-16T05:09:58;-2.40;71.40
22923;DHT22;11627;51.322;22.816;2022-12-16T05:12:42;-2.40;72.00
22923;DHT22;11627;51.322;22.816;2022-12-16T05:15:27;-2.70;71.80
22923;DHT22;11627;51.322;22.816;2022-12-16T05:18:15;-2.50;73.10
22923;DHT22;11627;51.322;22.816;2022-12-16T05:21:00;-2.50;72.80
22923;DHT22;11627;51.322;22.816;2022-12-16T05:23:45;-2.50;65.60
22923;DHT22;11627;51.322;22.816;2022-12-16T05:29:14;-2.30;74.60
22923;DHT22;11627;51.322;22.816;2022-12-16T05:31:58;-2.50;73.70
22923;DHT22;11627;51.322;22.816;2022-12-16T05:34:42;-2.60;75.00
22923;DHT22;11627;51.322;22.816;2022-12-16T05:37:28;-2.20;75.90
22923;DHT22;11627;51.322;22.816;2022-12-16T05:40:12;-2.60;76.00
22923;DHT22;11627;51.322;22.816;2022-12-16T05:45:41;-2.60;76.20
22923;DHT22;11627;51.322;22.816;2022-12-16T05:48:25;-2.60;77.10
22923;DHT22;11627;51.322;22.816;2022-12-16T05:56:41;-2.30;77.60
22923;DHT22;11627;51.322;22.816;2022-12-16T05:59:25;-2.40;78.10
22923;DHT22;11627;51.322;22.816;2022-12-16T06:02:09;-2.40;73.20
22923;DHT22;11627;51.322;22.816;2022-12-16T06:04:54;-2.40;79.60
22923;DHT22;11627;51.322;22.816;2022-12-16T06:07:39;-2.30;80.50
22923;DHT22;11627;51.322;22.816;2022-12-16T06:13:08;-2.40;80.10
22923;DHT22;11627;51.322;22.816;2022-12-16T06:15:53;-2.50;80.00
22923;DHT22;11627;51.322;22.816;2022-12-16T06:18:38;-2.30;78.70
22923;DHT22;11627;51.322;22.816;2022-12-16T06:21:23;-2.50;81.30
22923;DHT22;11627;51.322;22.816;2022-12-16T06:24:07;-2.20;81.30
22923;DHT22;11627;51.322;22.816;2022-12-16T06:26:51;-2.30;81.20
22923;DHT22;11627;51.322;22.816;2022-12-16T06:29:37;-2.30;81.00
22923;DHT22;11627;51.322;22.816;2022-12-16T06:32:21;-2.30;75.30
22923;DHT22;11627;51.322;22.816;2022-12-16T06:35:06;-2.20;78.80
22923;DHT22;11627;51.322;22.816;2022-12-16T06:37:51;-2.50;82.10
22923;DHT22;11627;51.322;22.816;2022-12-16T06:40:37;-2.40;83.00
22923;DHT22;11627;51.322;22.816;2022-12-16T06:46:07;-2.40;82.70
22923;DHT22;11627;51.322;22.816;2022-12-16T06:49:00;-2.40;83.50
22923;DHT22;11627;51.322;22.816;2022-12-16T06:57:13;-2.30;84.80
22923;DHT22;11627;51.322;22.816;2022-12-16T06:59:58;-2.30;84.70
22923;DHT22;11627;51.322;22.816;2022-12-16T07:02:42;-2.10;82.90
22923;DHT22;11627;51.322;22.816;2022-12-16T07:05:27;-2.20;85.40
22923;DHT22;11627;51.322;22.816;2022-12-16T07:08:13;-2.10;83.40
22923;DHT22;11627;51.322;22.816;2022-12-16T07:10:57;-2.20;85.80
22923;DHT22;11627;51.322;22.816;2022-12-16T07:13:41;-2.10;85.30
22923;DHT22;11627;51.322;22.816;2022-12-16T07:19:10;-2.10;87.30
22923;DHT22;11627;51.322;22.816;2022-12-16T07:21:54;-2.10;87.50
22923;DHT22;11627;51.322;22.816;2022-12-16T07:24:39;-2.20;86.80
22923;DHT22;11627;51.322;22.816;2022-12-16T07:27:24;-2.10;87.30
22923;DHT22;11627;51.322;22.816;2022-12-16T07:32:53;-2.10;87.50
22923;DHT22;11627;51.322;22.816;2022-12-16T07:35:42;-2.10;87.00
22923;DHT22;11627;51.322;22.816;2022-12-16T07:41:11;-2.00;85.70
22923;DHT22;11627;51.322;22.816;2022-12-16T07:43:55;-1.90;85.80
22923;DHT22;11627;51.322;22.816;2022-12-16T07:46:40;-1.90;86.20
22923;DHT22;11627;51.322;22.816;2022-12-16T07:49:25;-1.80;86.20
22923;DHT22;11627;51.322;22.816;2022-12-16T07:52:09;-2.00;86.60
22923;DHT22;11627;51.322;22.816;2022-12-16T07:54:53;-2.00;87.40
22923;DHT22;11627;51.322;22.816;2022-12-16T08:00:22;-1.90;88.90
22923;DHT22;11627;51.322;22.816;2022-12-16T08:03:07;-2.00;88.70
22923;DHT22;11627;51.322;22.816;2022-12-16T08:05:52;-1.90;88.50
22923;DHT22;11627;51.322;22.816;2022-12-16T08:08:36;-2.00;88.20
22923;DHT22;11627;51.322;22.816;2022-12-16T08:11:20;-2.00;89.10
22923;DHT22;11627;51.322;22.816;2022-12-16T08:16:48;-2.00;90.00
22923;DHT22;11627;51.322;22.816;2022-12-16T08:22:17;-1.80;87.90
22923;DHT22;11627;51.322;22.816;2022-12-16T08:25:02;-1.90;82.60
22923;DHT22;11627;51.322;22.816;2022-12-16T08:27:53;-2.10;89.80
22923;DHT22;11627;51.322;22.816;2022-12-16T08:30:38;-2.10;90.00
22923;DHT22;11627;51.322;22.816;2022-12-16T08:33:24;-1.90;88.80
22923;DHT22;11627;51.322;22.816;2022-12-16T08:36:08;-1.30;90.20
22923;DHT22;11627;51.322;22.816;2022-12-16T08:41:37;-1.80;89.10
22923;DHT22;11627;51.322;22.816;2022-12-16T08:44:21;-1.80;87.90
22923;DHT22;11627;51.322;22.816;2022-12-16T08:47:05;-1.80;81.90
22923;DHT22;11627;51.322;22.816;2022-12-16T08:49:50;-1.80;86.80
22923;DHT22;11627;51.322;22.816;2022-12-16T08:55:19;-1.70;87.40
22923;DHT22;11627;51.322;22.816;2022-12-16T08:58:03;-1.80;86.80
22923;DHT22;11627;51.322;22.816;2022-12-16T09:00:48;-1.70;86.90
22923;DHT22;11627;51.322;22.816;2022-12-16T09:06:17;-1.70;86.40
22923;DHT22;11627;51.322;22.816;2022-12-16T09:12:05;-1.80;81.00
22923;DHT22;11627;51.322;22.816;2022-12-16T09:14:51;-1.40;77.40
22923;DHT22;11627;51.322;22.816;2022-12-16T09:17:35;-1.60;85.30
22923;DHT22;11627;51.322;22.816;2022-12-16T09:23:06;-1.50;84.30
22923;DHT22;11627;51.322;22.816;2022-12-16T09:34:19;-1.30;81.20
22923;DHT22;11627;51.322;22.816;2022-12-16T09:37:04;-0.90;84.70
22923;DHT22;11627;51.322;22.816;2022-12-16T09:39:50;-1.60;85.60
22923;DHT22;11627;51.322;22.816;2022-12-16T09:49:51;-1.30;84.80
22923;DHT22;11627;51.322;22.816;2022-12-16T09:52:58;-1.40;84.70
22923;DHT22;11627;51.322;22.816;2022-12-16T09:55:44;-1.40;74.60
22923;DHT22;11627;51.322;22.816;2022-12-16T09:58:38;-1.30;84.80
22923;DHT22;11627;51.322;22.816;2022-12-16T10:01:25;-1.30;75.60
22923;DHT22;11627;51.322;22.816;2022-12-16T10:04:10;-1.20;84.40
22923;DHT22;11627;51.322;22.816;2022-12-16T10:06:58;-1.40;82.90
22923;DHT22;11627;51.322;22.816;2022-12-16T10:16:38;-1.30;75.60
22923;DHT22;11627;51.322;22.816;2022-12-16T10:20:06;-1.20;83.10
22923;DHT22;11627;51.322;22.816;2022-12-16T10:22:55;-1.30;82.60
22923;DHT22;11627;51.322;22.816;2022-12-16T10:25:58;-1.20;82.80
22923;DHT22;11627;51.322;22.816;2022-12-16T10:28:50;-1.20;81.80
22923;DHT22;11627;51.322;22.816;2022-12-16T10:31:36;-1.20;73.30
22923;DHT22;11627;51.322;22.816;2022-12-16T10:34:26;-1.20;72.90
22923;DHT22;11627;51.322;22.816;2022-12-16T10:37:19;-1.20;72.80
22923;DHT22;11627;51.322;22.816;2022-12-16T10:40:12;-1.20;80.50
22923;DHT22;11627;51.322;22.816;2022-12-16T10:43:03;-1.20;76.10
22923;DHT22;11627;51.322;22.816;2022-12-16T10:45:51;-1.30;77.00
22923;DHT22;11627;51.322;22.816;2022-12-16T10:48:36;-1.10;81.50
22923;DHT22;11627;51.322;22.816;2022-12-16T10:51:22;-1.10;80.90
22923;DHT22;11627;51.322;22.816;2022-12-16T11:00:49;-1.10;74.50
22923;DHT22;11627;51.322;22.816;2022-12-16T11:03:38;-1.20;82.40
22923;DHT22;11627;51.322;22.816;2022-12-16T11:06:35;-1.10;81.40
22923;DHT22;11627;51.322;22.816;2022-12-16T11:09:32;-1.00;79.70
22923;DHT22;11627;51.322;22.816;2022-12-16T11:15:32;-1.30;78.90
22923;DHT22;11627;51.322;22.816;2022-12-16T11:18:18;-1.10;71.90
22923;DHT22;11627;51.322;22.816;2022-12-16T11:21:18;-1.10;80.40
22923;DHT22;11627;51.322;22.816;2022-12-16T11:24:09;-1.00;72.60
22923;DHT22;11627;51.322;22.816;2022-12-16T11:26:59;-0.90;79.60
22923;DHT22;11627;51.322;22.816;2022-12-16T11:32:40;-1.10;78.40
22923;DHT22;11627;51.322;22.816;2022-12-16T11:35:28;-0.90;78.80
22923;DHT22;11627;51.322;22.816;2022-12-16T11:38:23;-0.90;78.90
22923;DHT22;11627;51.322;22.816;2022-12-16T11:41:20;-0.90;79.20
22923;DHT22;11627;51.322;22.816;2022-12-16T11:44:12;-1.30;79.30
22923;DHT22;11627;51.322;22.816;2022-12-16T11:46:58;-0.90;81.00
22923;DHT22;11627;51.322;22.816;2022-12-16T11:49:44;-1.00;81.60
22923;DHT22;11627;51.322;22.816;2022-12-16T11:52:31;-1.00;72.80
22923;DHT22;11627;51.322;22.816;2022-12-16T11:55:28;-1.00;73.10
22923;DHT22;11627;51.322;22.816;2022-12-16T11:59:02;-0.90;73.50
22923;DHT22;11627;51.322;22.816;2022-12-16T12:01:44;-0.80;82.70
22923;DHT22;11627;51.322;22.816;2022-12-16T12:07:24;-0.80;82.70
22923;DHT22;11627;51.322;22.816;2022-12-16T12:16:40;-0.80;74.40
22923;DHT22;11627;51.322;22.816;2022-12-16T12:22:39;-0.90;84.30
22923;DHT22;11627;51.322;22.816;2022-12-16T12:25:45;-0.90;76.30
22923;DHT22;11627;51.322;22.816;2022-12-16T12:28:44;-1.00;85.00
22923;DHT22;11627;51.322;22.816;2022-12-16T12:31:47;-0.80;85.10
22923;DHT22;11627;51.322;22.816;2022-12-16T12:38:07;-0.80;76.80
22923;DHT22;11627;51.322;22.816;2022-12-16T12:44:29;-0.70;77.90
22923;DHT22;11627;51.322;22.816;2022-12-16T12:47:22;-0.80;77.50
22923;DHT22;11627;51.322;22.816;2022-12-16T12:53:32;-0.80;77.70
22923;DHT22;11627;51.322;22.816;2022-12-16T12:56:51;-1.00;78.50
22923;DHT22;11627;51.322;22.816;2022-12-16T13:02:52;-0.60;85.40
22923;DHT22;11627;51.322;22.816;2022-12-16T13:05:42;-0.70;84.60
22923;DHT22;11627;51.322;22.816;2022-12-16T13:19:59;-0.90;84.40
22923;DHT22;11627;51.322;22.816;2022-12-16T13:22:46;-0.70;85.30
22923;DHT22;11627;51.322;22.816;2022-12-16T13:25:31;-0.70;85.90
22923;DHT22;11627;51.322;22.816;2022-12-16T13:28:31;-0.80;85.10
22923;DHT22;11627;51.322;22.816;2022-12-16T13:31:17;-0.60;85.20
22923;DHT22;11627;51.322;22.816;2022-12-16T13:34:26;-0.70;85.40
22923;DHT22;11627;51.322;22.816;2022-12-16T13:37:24;-0.80;84.70
22923;DHT22;11627;51.322;22.816;2022-12-16T13:40:21;-0.70;84.70
22923;DHT22;11627;51.322;22.816;2022-12-16T13:43:41;-0.70;78.00
22923;DHT22;11627;51.322;22.816;2022-12-16T13:46:39;-0.70;78.00
22923;DHT22;11627;51.322;22.816;2022-12-16T13:49:46;-0.60;85.40
22923;DHT22;11627;51.322;22.816;2022-12-16T13:52:57;-0.70;78.20
22923;DHT22;11627;51.322;22.816;2022-12-16T13:58:59;-0.70;85.90
22923;DHT22;11627;51.322;22.816;2022-12-16T14:01:56;-0.70;78.90
22923;DHT22;11627;51.322;22.816;2022-12-16T14:04:50;-0.70;79.30
22923;DHT22;11627;51.322;22.816;2022-12-16T14:07:37;-0.70;79.10
22923;DHT22;11627;51.322;22.816;2022-12-16T14:10:34;-0.80;86.50
22923;DHT22;11627;51.322;22.816;2022-12-16T14:25:33;-0.70;87.40
22923;DHT22;11627;51.322;22.816;2022-12-16T14:34:01;-0.70;87.30
22923;DHT22;11627;51.322;22.816;2022-12-16T14:36:46;-0.90;78.90
22923;DHT22;11627;51.322;22.816;2022-12-16T14:39:37;-0.60;86.70
22923;DHT22;11627;51.322;22.816;2022-12-16T14:42:29;-0.80;79.70
22923;DHT22;11627;51.322;22.816;2022-12-16T14:45:24;-0.70;86.80
22923;DHT22;11627;51.322;22.816;2022-12-16T14:48:33;-0.70;79.90
22923;DHT22;11627;51.322;22.816;2022-12-16T14:51:33;-0.70;80.00
22923;DHT22;11627;51.322;22.816;2022-12-16T14:57:18;-0.90;86.90
22923;DHT22;11627;51.322;22.816;2022-12-16T15:00:23;-0.80;80.10
22923;DHT22;11627;51.322;22.816;2022-12-16T15:03:12;-0.80;80.10
22923;DHT22;11627;51.322;22.816;2022-12-16T15:06:05;-0.80;80.50
22923;DHT22;11627;51.322;22.816;2022-12-16T15:08:52;-0.70;87.30
22923;DHT22;11627;51.322;22.816;2022-12-16T15:11:41;-0.80;80.40
22923;DHT22;11627;51.322;22.816;2022-12-16T15:14:32;-0.80;80.70
22923;DHT22;11627;51.322;22.816;2022-12-16T15:17:30;1.40;82.50
22923;DHT22;11627;51.322;22.816;2022-12-16T15:20:22;-0.90;87.90
22923;DHT22;11627;51.322;22.816;2022-12-16T15:23:30;-0.90;87.00
22923;DHT22;11627;51.322;22.816;2022-12-16T15:26:22;-0.80;80.20
22923;DHT22;11627;51.322;22.816;2022-12-16T15:29:39;-0.80;80.40
22923;DHT22;11627;51.322;22.816;2022-12-16T15:35:35;-0.70;86.40
22923;DHT22;11627;51.322;22.816;2022-12-16T15:38:46;-0.80;88.30
22923;DHT22;11627;51.322;22.816;2022-12-16T15:41:33;-0.80;88.30
22923;DHT22;11627;51.322;22.816;2022-12-16T15:44:23;-0.90;88.20
22923;DHT22;11627;51.322;22.816;2022-12-16T15:47:35;-1.00;87.90
22923;DHT22;11627;51.322;22.816;2022-12-16T15:50:23;-0.90;88.80
22923;DHT22;11627;51.322;22.816;2022-12-16T15:53:31;-0.90;80.70
22923;DHT22;11627;51.322;22.816;2022-12-16T15:59:24;-0.90;80.80
22923;DHT22;11627;51.322;22.816;2022-12-16T16:02:18;-0.90;79.70
22923;DHT22;11627;51.322;22.816;2022-12-16T16:05:15;-0.80;79.90
22923;DHT22;11627;51.322;22.816;2022-12-16T16:08:01;-0.80;79.40
22923;DHT22;11627;51.322;22.816;2022-12-16T16:10:45;-0.90;79.70
22923;DHT22;11627;51.322;22.816;2022-12-16T16:13:30;-1.00;88.00
22923;DHT22;11627;51.322;22.816;2022-12-16T16:16:14;-1.10;87.70
22923;DHT22;11627;51.322;22.816;2022-12-16T16:18:58;-0.90;80.40
22923;DHT22;11627;51.322;22.816;2022-12-16T16:21:44;-0.90;80.00
22923;DHT22;11627;51.322;22.816;2022-12-16T16:24:30;-0.90;87.40
22923;DHT22;11627;51.322;22.816;2022-12-16T16:27:14;-0.80;86.80
22923;DHT22;11627;51.322;22.816;2022-12-16T16:30:02;-1.00;87.00
22923;DHT22;11627;51.322;22.816;2022-12-16T16:32:46;-1.00;88.00
22923;DHT22;11627;51.322;22.816;2022-12-16T16:35:32;-1.10;88.80
22923;DHT22;11627;51.322;22.816;2022-12-16T16:38:17;-1.00;89.20
22923;DHT22;11627;51.322;22.816;2022-12-16T16:41:03;-1.10;88.70
22923;DHT22;11627;51.322;22.816;2022-12-16T16:43:47;-1.00;81.30
22923;DHT22;11627;51.322;22.816;2022-12-16T16:46:37;-1.00;80.80
22923;DHT22;11627;51.322;22.816;2022-12-16T16:49:32;-1.00;80.20
22923;DHT22;11627;51.322;22.816;2022-12-16T16:52:21;-1.10;88.20
22923;DHT22;11627;51.322;22.816;2022-12-16T16:55:05;-1.10;89.80
22923;DHT22;11627;51.322;22.816;2022-12-16T16:57:50;-1.10;89.10
22923;DHT22;11627;51.322;22.816;2022-12-16T17:03:19;-1.20;81.50
22923;DHT22;11627;51.322;22.816;2022-12-16T17:06:03;-1.10;82.10
22923;DHT22;11627;51.322;22.816;2022-12-16T17:08:49;-1.20;81.60
22923;DHT22;11627;51.322;22.816;2022-12-16T17:11:33;-1.10;80.90
22923;DHT22;11627;51.322;22.816;2022-12-16T17:14:19;0.70;81.80
22923;DHT22;11627;51.322;22.816;2022-12-16T17:17:04;-1.20;80.20
22923;DHT22;11627;51.322;22.816;2022-12-16T17:19:49;-1.30;80.50
22923;DHT22;11627;51.322;22.816;2022-12-16T17:22:33;-1.40;80.40
22923;DHT22;11627;51.322;22.816;2022-12-16T17:25:18;-1.40;81.70
22923;DHT22;11627;51.322;22.816;2022-12-16T17:28:04;-1.30;79.70
22923;DHT22;11627;51.322;22.816;2022-12-16T17:30:48;-1.30;79.30
22923;DHT22;11627;51.322;22.816;2022-12-16T17:33:32;-1.00;79.40
22923;DHT22;11627;51.322;22.816;2022-12-16T17:36:17;-1.30;86.20
22923;DHT22;11627;51.322;22.816;2022-12-16T17:39:03;-1.20;85.70
22923;DHT22;11627;51.322;22.816;2022-12-16T17:41:49;-1.20;84.30
22923;DHT22;11627;51.322;22.816;2022-12-16T17:44:33;-1.20;83.20
22923;DHT22;11627;51.322;22.816;2022-12-16T17:47:17;0.70;76.90
22923;DHT22;11627;51.322;22.816;2022-12-16T17:50:02;-1.10;82.30
22923;DHT22;11627;51.322;22.816;2022-12-16T17:52:47;-1.20;81.70
22923;DHT22;11627;51.322;22.816;2022-12-16T17:55:33;-0.60;74.70
22923;DHT22;11627;51.322;22.816;2022-12-16T17:58:17;0.00;75.00
22923;DHT22;11627;51.322;22.816;2022-12-16T18:01:21;-1.40;81.10
22923;DHT22;11627;51.322;22.816;2022-12-16T18:06:50;-1.40;73.70
22923;DHT22;11627;51.322;22.816;2022-12-16T18:09:36;1.00;75.90
22923;DHT22;11627;51.322;22.816;2022-12-16T18:12:21;-1.50;74.80
22923;DHT22;11627;51.322;22.816;2022-12-16T18:15:05;0.50;77.10
22923;DHT22;11627;51.322;22.816;2022-12-16T18:17:50;-1.50;75.90
22923;DHT22;11627;51.322;22.816;2022-12-16T18:20:34;-1.50;76.40
22923;DHT22;11627;51.322;22.816;2022-12-16T18:23:20;-1.50;76.00
22923;DHT22;11627;51.322;22.816;2022-12-16T18:26:07;0.50;76.70
22923;DHT22;11627;51.322;22.816;2022-12-16T18:28:52;-1.60;76.10
22923;DHT22;11627;51.322;22.816;2022-12-16T18:31:36;-1.60;85.40
22923;DHT22;11627;51.322;22.816;2022-12-16T18:34:21;-1.80;78.30
22923;DHT22;11627;51.322;22.816;2022-12-16T18:37:09;-1.70;79.00
22923;DHT22;11627;51.322;22.816;2022-12-16T18:39:55;0.20;79.70
22923;DHT22;11627;51.322;22.816;2022-12-16T18:42:40;-1.80;85.60
22923;DHT22;11627;51.322;22.816;2022-12-16T18:45:26;-1.60;84.80
22923;DHT22;11627;51.322;22.816;2022-12-16T18:48:10;-1.60;83.80
22923;DHT22;11627;51.322;22.816;2022-12-16T18:50:56;-1.60;75.90
22923;DHT22;11627;51.322;22.816;2022-12-16T18:53:41;-1.50;82.90
22923;DHT22;11627;51.322;22.816;2022-12-16T18:56:25;-1.50;75.20
22923;DHT22;11627;51.322;22.816;2022-12-16T18:59:10;0.00;74.90
22923;DHT22;11627;51.322;22.816;2022-12-16T19:01:56;-1.70;74.70
22923;DHT22;11627;51.322;22.816;2022-12-16T19:04:40;0.80;75.40
22923;DHT22;11627;51.322;22.816;2022-12-16T19:07:24;-1.60;83.40
22923;DHT22;11627;51.322;22.816;2022-12-16T19:10:09;-1.60;82.80
22923;DHT22;11627;51.322;22.816;2022-12-16T19:12:57;-1.80;75.90
22923;DHT22;11627;51.322;22.816;2022-12-16T19:15:42;-1.80;76.00
22923;DHT22;11627;51.322;22.816;2022-12-16T19:18:27;-1.80;74.30
22923;DHT22;11627;51.322;22.816;2022-12-16T19:23:58;-1.90;81.50
22923;DHT22;11627;51.322;22.816;2022-12-16T19:26:42;-0.50;74.80
22923;DHT22;11627;51.322;22.816;2022-12-16T19:29:27;-1.80;74.00
22923;DHT22;11627;51.322;22.816;2022-12-16T19:32:11;-1.80;73.00
22923;DHT22;11627;51.322;22.816;2022-12-16T19:34:57;-0.20;74.20
22923;DHT22;11627;51.322;22.816;2022-12-16T19:37:41;-1.80;72.30
22923;DHT22;11627;51.322;22.816;2022-12-16T19:40:27;-1.80;73.00
22923;DHT22;11627;51.322;22.816;2022-12-16T19:43:11;-1.90;81.00
22923;DHT22;11627;51.322;22.816;2022-12-16T19:46:02;0.20;73.80
22923;DHT22;11627;51.322;22.816;2022-12-16T19:48:46;-2.10;78.70
22923;DHT22;11627;51.322;22.816;2022-12-16T19:51:30;-0.30;72.00
22923;DHT22;11627;51.322;22.816;2022-12-16T19:54:14;-1.90;81.30
22923;DHT22;11627;51.322;22.816;2022-12-16T19:56:58;-2.00;73.80
22923;DHT22;11627;51.322;22.816;2022-12-16T19:59:44;-2.00;72.70
22923;DHT22;11627;51.322;22.816;2022-12-16T20:02:28;-2.10;78.90
22923;DHT22;11627;51.322;22.816;2022-12-16T20:05:32;-2.00;71.30
22923;DHT22;11627;51.322;22.816;2022-12-16T20:08:16;-2.10;70.30
22923;DHT22;11627;51.322;22.816;2022-12-16T20:11:08;-0.30;71.70
22923;DHT22;11627;51.322;22.816;2022-12-16T20:13:54;-2.10;71.10
22923;DHT22;11627;51.322;22.816;2022-12-16T20:16:39;-2.10;78.70
22923;DHT22;11627;51.322;22.816;2022-12-16T20:19:25;-2.00;70.40
22923;DHT22;11627;51.322;22.816;2022-12-16T20:22:10;-2.00;69.50
22923;DHT22;11627;51.322;22.816;2022-12-16T20:24:55;-2.20;69.80
22923;DHT22;11627;51.322;22.816;2022-12-16T20:27:40;-2.10;80.70
22923;DHT22;11627;51.322;22.816;2022-12-16T20:30:25;-2.10;79.60
22923;DHT22;11627;51.322;22.816;2022-12-16T20:33:13;-2.10;71.70
22923;DHT22;11627;51.322;22.816;2022-12-16T20:35:59;-2.00;69.90